createdAt,value
2024-01-20T00:02:19.762Z,8.27
2024-01-20T00:12:22.769Z,7.72
2024-01-20T00:22:27.104Z,12.70
2024-01-20T00:32:30.462Z,10.52
2024-01-20T00:42:35.146Z,7.03
2024-01-20T00:52:38.410Z,7.40
2024-01-20T01:02:43.115Z,7.75
2024-01-20T01:12:46.122Z,5.95
2024-01-20T01:22:52.321Z,6.82
2024-01-20T01:32:55.258Z,6.72
2024-01-20T01:42:59.521Z,7.78
2024-01-20T01:53:02.525Z,5.88
2024-01-20T02:03:07.039Z,8.13
2024-01-20T02:13:10.358Z,6.07
2024-01-20T02:23:14.610Z,7.55
2024-01-20T02:33:17.886Z,7.22
2024-01-20T02:43:22.314Z,6.50
2024-01-20T02:53:26.784Z,6.72
2024-01-20T03:03:31.272Z,9.57
2024-01-20T03:13:34.250Z,5.25
2024-01-20T03:23:38.538Z,5.15
2024-01-20T03:33:41.580Z,6.30
2024-01-20T03:43:45.993Z,6.20
2024-01-20T03:53:48.958Z,7.80
2024-01-20T04:03:53.436Z,9.48
2024-01-20T04:13:56.364Z,9.18
2024-01-20T04:24:00.740Z,5.93
2024-01-20T04:34:03.752Z,5.35
2024-01-20T04:44:08.248Z,5.13
2024-01-20T04:54:11.203Z,8.98
2024-01-20T05:04:15.596Z,4.70
2024-01-20T05:14:18.499Z,7.07
2024-01-20T05:24:22.725Z,3.55
2024-01-20T05:34:25.715Z,11.10
2024-01-20T05:44:30.554Z,6.07
2024-01-20T05:54:33.529Z,11.63
2024-01-20T06:04:37.806Z,4.03
2024-01-20T06:14:41.484Z,7.65
2024-01-20T06:24:45.780Z,4.45
2024-01-20T06:34:48.732Z,5.80
2024-01-20T06:44:53.045Z,9.23
2024-01-20T06:54:55.986Z,8.57
2024-01-20T07:05:01.705Z,7.35
2024-01-20T07:25:12.077Z,9.32
2024-01-20T07:35:15.740Z,13.60
2024-01-20T07:45:20.115Z,10.80
2024-01-20T07:55:23.077Z,11.15
2024-01-20T08:05:27.372Z,6.93
2024-01-20T08:15:30.310Z,9.05
2024-01-20T08:25:34.740Z,15.98
2024-01-20T08:35:37.648Z,16.30
2024-01-20T08:45:42.107Z,6.28
2024-01-20T08:55:45.732Z,9.98
2024-01-20T09:05:50.086Z,10.43
2024-01-20T09:15:53.219Z,10.60
2024-01-20T09:25:57.541Z,8.48
2024-01-20T09:36:00.546Z,12.77
2024-01-20T09:46:05.491Z,8.30
2024-01-20T09:56:08.569Z,9.35
2024-01-20T10:06:12.809Z,9.13
2024-01-20T10:16:15.866Z,9.35
2024-01-20T10:26:20.142Z,11.77
2024-01-20T10:36:25.923Z,15.50
2024-01-20T10:46:32.443Z,15.35
2024-01-20T10:56:37.365Z,13.50
2024-01-20T11:06:42.462Z,14.20
2024-01-20T11:16:45.501Z,10.18
2024-01-20T11:26:50.960Z,12.82
2024-01-20T11:36:55.195Z,14.77
2024-01-20T11:47:00.614Z,11.63
2024-01-20T11:57:05.568Z,13.73
2024-01-20T12:07:10.192Z,13.50
2024-01-20T12:17:13.963Z,10.27
2024-01-20T12:27:19.424Z,8.88
2024-01-20T12:37:22.353Z,8.95
2024-01-20T12:47:26.903Z,9.48
2024-01-20T12:57:29.876Z,8.63
2024-01-20T13:07:34.162Z,10.00
2024-01-20T13:17:37.176Z,10.05
2024-01-20T13:27:41.561Z,9.82
2024-01-20T13:37:44.619Z,9.52
2024-01-20T13:47:48.912Z,11.40
2024-01-20T13:57:51.958Z,14.85
2024-01-20T14:07:56.244Z,13.15
2024-01-20T14:17:59.400Z,17.70
2024-01-20T14:28:05.183Z,19.95
2024-01-20T14:38:08.160Z,24.52
2024-01-20T14:48:13.439Z,23.23
2024-01-20T14:58:16.480Z,20.30
2024-01-20T15:08:20.770Z,31.55
2024-01-20T15:18:23.949Z,23.67
2024-01-20T15:28:28.931Z,16.40
2024-01-20T15:38:31.809Z,16.30
2024-01-20T15:48:43.445Z,31.40
2024-01-20T15:58:47.120Z,24.88
2024-01-20T16:08:53.047Z,20.92
2024-01-20T16:18:56.755Z,14.88
2024-01-20T16:29:01.224Z,33.50
2024-01-20T16:39:05.483Z,35.35
2024-01-20T16:49:10.036Z,27.52
2024-01-20T16:59:13.095Z,18.50
2024-01-20T17:09:17.718Z,19.27
2024-01-20T17:19:21.263Z,21.60
2024-01-20T17:29:28.621Z,18.60
2024-01-20T17:49:41.029Z,18.43
2024-01-20T17:59:44.023Z,23.88
2024-01-20T18:09:48.494Z,25.75
2024-01-20T18:19:51.579Z,22.55
2024-01-20T18:29:57.198Z,17.45
2024-01-20T18:40:00.245Z,14.38
2024-01-20T18:50:04.941Z,17.95
2024-01-20T19:00:08.972Z,18.30
2024-01-20T19:10:13.351Z,15.90
2024-01-20T19:20:16.350Z,17.45
2024-01-20T19:30:22.127Z,19.52
2024-01-20T19:40:25.044Z,19.60
2024-01-20T19:50:29.451Z,18.63
2024-01-20T20:00:32.932Z,16.52
2024-01-20T20:10:37.210Z,16.92
2024-01-20T20:20:40.255Z,18.52
2024-01-20T20:40:48.962Z,14.93
2024-01-20T20:50:53.444Z,17.20
2024-01-20T21:00:56.568Z,15.52
2024-01-20T21:11:00.969Z,12.13
2024-01-20T21:21:03.882Z,10.02
2024-01-20T21:31:08.968Z,9.55
2024-01-20T21:41:12.958Z,11.55
2024-01-20T21:51:17.307Z,15.82
2024-01-20T22:01:20.372Z,13.55
2024-01-20T22:11:25.038Z,9.02
2024-01-20T22:21:27.973Z,8.88
2024-01-20T22:31:33.156Z,8.95
2024-01-20T22:41:36.062Z,6.25
2024-01-20T22:51:40.405Z,6.82
2024-01-20T23:01:44.700Z,5.43
2024-01-20T23:11:48.963Z,3.53
2024-01-20T23:21:51.938Z,4.70
2024-01-20T23:31:56.215Z,3.25
2024-01-20T23:41:59.134Z,3.22
2024-01-20T23:52:03.946Z,2.30
